Time;durP1;ratioP1;P1;durP2;ratioP2;P2;SDS_P1;SDS_P2;PMS_P1;PMS_P2;Temp;Humidity;BMP_temperature;BMP_pressure;BME280_temperature;BME280_humidity;BME280_pressure;Samples;Min_cycle;Max_cycle;Signal;HPM_P1;HPM_P2
2023/04/28 00:00:25;;;;;;;10.50;9.90;;;;;;;6.06;58.33;92994.09;5110088;28;20172;-75
2023/04/28 00:02:51;;;;;;;9.80;9.17;;;;;;;6.06;58.00;92991.53;5119052;28;20825;-75
2023/04/28 00:05:16;;;;;;;10.63;9.83;;;;;;;5.97;57.62;92992.97;5109858;28;20184;-75
2023/04/28 00:07:42;;;;;;;11.87;10.90;;;;;;;5.98;58.24;92989.34;5109336;28;20727;-75
2023/04/28 00:10:08;;;;;;;9.47;8.77;;;;;;;5.97;58.34;92977.41;5121741;28;20242;-76
2023/04/28 00:12:33;;;;;;;10.37;9.83;;;;;;;5.81;57.78;92991.19;5123870;28;20227;-76
2023/04/28 00:14:59;;;;;;;11.53;10.83;;;;;;;5.94;58.42;92991.66;5122444;28;20172;-76
2023/04/28 00:17:24;;;;;;;11.37;10.47;;;;;;;5.74;57.92;92975.84;5121033;28;20283;-75
2023/04/28 00:19:50;;;;;;;11.30;10.50;;;;;;;5.66;58.30;92986.59;5110899;28;20184;-76
2023/04/28 00:22:15;;;;;;;10.70;10.20;;;;;;;5.59;58.52;92982.59;5109534;28;20250;-75
2023/04/28 00:24:40;;;;;;;10.40;9.80;;;;;;;5.73;58.38;92994.16;5127104;28;20191;-75
2023/04/28 00:27:06;;;;;;;10.53;9.60;;;;;;;5.65;58.69;92997.19;5128828;28;20261;-75
2023/04/28 00:29:32;;;;;;;10.83;10.23;;;;;;;5.62;58.95;92995.09;5115128;28;20171;-75
2023/04/28 00:31:57;;;;;;;11.90;11.00;;;;;;;5.56;59.13;92990.84;5116004;28;20232;-75
2023/04/28 00:34:23;;;;;;;10.37;9.77;;;;;;;5.47;59.52;92979.31;5094231;28;20188;-75
2023/04/28 00:36:48;;;;;;;11.50;10.57;;;;;;;5.58;59.41;92993.97;5104718;28;20369;-76
2023/04/28 00:39:15;;;;;;;11.03;10.17;;;;;;;5.63;60.96;92994.06;5102019;28;20199;-76
2023/04/28 00:41:40;;;;;;;10.50;9.80;;;;;;;5.44;59.42;92996.13;5109186;28;20231;-74
2023/04/28 00:44:06;;;;;;;10.53;9.83;;;;;;;5.33;60.00;92986.66;5102050;28;20192;-75
2023/04/28 00:46:32;;;;;;;12.13;10.90;;;;;;;5.40;60.02;93004.59;5100289;28;20219;-74
2023/04/28 00:48:58;;;;;;;10.17;9.57;;;;;;;5.29;59.98;92982.19;5103334;28;20179;-76
2023/04/28 00:51:26;;;;;;;10.97;10.10;;;;;;;5.40;60.20;93004.59;5089821;28;20236;-75
2023/04/28 00:53:51;;;;;;;10.13;9.57;;;;;;;5.33;59.53;92999.59;5076073;28;20279;-75
2023/04/28 00:56:17;;;;;;;9.87;9.27;;;;;;;5.43;60.34;92996.38;5093822;28;20287;-75
2023/04/28 00:58:42;;;;;;;10.83;10.03;;;;;;;5.11;60.13;92964.31;5110762;28;20247;-75
2023/04/28 01:01:09;;;;;;;11.20;9.80;;;;;;;5.23;59.96;93006.44;5100772;28;20219;-75
2023/04/28 01:03:37;;;;;;;10.73;10.13;;;;;;;5.24;60.32;92998.44;5123248;28;20242;-75
2023/04/28 01:06:07;;;;;;;10.77;10.27;;;;;;;5.25;60.01;93005.16;5119097;28;20227;-75
2023/04/28 01:08:35;;;;;;;10.40;9.70;;;;;;;5.29;59.79;93010.66;5119747;28;20180;-76
2023/04/28 01:11:01;;;;;;;11.00;10.33;;;;;;;5.30;60.15;93015.59;5111385;28;20288;-76
2023/04/28 01:13:26;;;;;;;10.23;9.43;;;;;;;5.18;60.63;93007.13;5112484;28;20188;-75
2023/04/28 01:15:53;;;;;;;10.67;9.93;;;;;;;5.17;59.28;93004.78;5112108;28;20443;-76
2023/04/28 01:18:19;;;;;;;11.93;11.23;;;;;;;5.15;59.30;93001.63;5112922;28;20187;-75
2023/04/28 01:20:44;;;;;;;11.20;10.30;;;;;;;5.08;59.14;92993.22;5112548;28;20244;-76
2023/04/28 01:23:16;;;;;;;10.40;9.70;;;;;;;5.06;59.10;92997.88;5122080;28;20239;-70
2023/04/28 01:25:43;;;;;;;11.53;10.63;;;;;;;5.13;59.34;93016.63;5112727;28;20176;-71
2023/04/28 01:28:09;;;;;;;10.73;9.77;;;;;;;5.07;58.87;93007.22;5120073;28;20579;-72
2023/04/28 01:30:35;;;;;;;11.27;10.50;;;;;;;5.10;59.06;93024.84;5124368;28;20216;-72
2023/04/28 01:33:02;;;;;;;9.93;9.43;;;;;;;5.08;58.77;93025.09;5120491;28;20252;-72
2023/04/28 01:35:27;;;;;;;10.40;9.70;;;;;;;4.86;59.35;92998.31;5130945;28;20184;-71
2023/04/28 01:37:52;;;;;;;10.17;9.67;;;;;;;4.86;59.79;92988.78;5126954;28;20289;-71
2023/04/28 01:40:18;;;;;;;9.93;9.23;;;;;;;4.96;58.60;92986.34;5120269;28;20192;-71
2023/04/28 01:42:43;;;;;;;10.27;9.70;;;;;;;5.10;58.74;93017.09;5110552;28;20231;-71
2023/04/28 01:45:09;;;;;;;11.37;10.30;;;;;;;5.08;58.99;93016.53;5111300;28;20210;-72
2023/04/28 01:47:35;;;;;;;11.07;10.13;;;;;;;5.05;59.37;93014.41;5113540;28;20239;-72
2023/04/28 01:50:00;;;;;;;10.30;9.80;;;;;;;5.03;59.62;93019.81;5131299;28;20183;-71
2023/04/28 01:52:26;;;;;;;11.30;10.53;;;;;;;5.00;59.25;93011.75;5125571;28;20259;-72
2023/04/28 01:54:52;;;;;;;11.40;10.70;;;;;;;4.86;59.55;92998.31;5115649;28;20195;-72
2023/04/28 01:57:18;;;;;;;11.27;10.33;;;;;;;5.08;60.44;93024.28;5112570;28;20243;-71
2023/04/28 01:59:43;;;;;;;11.33;10.63;;;;;;;4.95;60.26;93013.22;5113957;28;20213;-71
2023/04/28 02:02:08;;;;;;;10.80;10.07;;;;;;;5.01;60.61;93010.72;5114752;28;20252;-71
2023/04/28 02:04:34;;;;;;;9.60;9.20;;;;;;;5.05;60.67;93014.41;5099103;28;20288;-71
2023/04/28 02:06:59;;;;;;;10.97;10.37;;;;;;;5.05;60.41;93012.63;5106538;28;20212;-72
2023/04/28 02:09:25;;;;;;;10.40;9.83;;;;;;;4.96;61.19;93019.97;5099718;28;20207;-72
2023/04/28 02:11:50;;;;;;;11.77;11.00;;;;;;;4.98;61.80;93015.34;5105667;28;20228;-72
2023/04/28 02:14:15;;;;;;;10.07;9.57;;;;;;;5.06;62.54;93023.75;5100138;28;20234;-71
2023/04/28 02:16:41;;;;;;;10.50;9.53;;;;;;;4.88;61.00;93012.63;5099745;28;20227;-71
2023/04/28 02:19:06;;;;;;;9.43;8.93;;;;;;;4.92;61.35;93031.81;5122466;28;20202;-71
2023/04/28 02:21:32;;;;;;;11.00;10.30;;;;;;;4.84;60.71;93016.66;5125496;28;20220;-71
2023/04/28 02:23:57;;;;;;;10.13;9.63;;;;;;;4.92;60.65;93029.22;5119686;28;20191;-71
2023/04/28 02:26:23;;;;;;;11.30;10.53;;;;;;;4.91;60.53;93019.91;5126254;28;20234;-72
2023/04/28 02:28:48;;;;;;;10.43;9.80;;;;;;;4.94;60.70;93027.19;5130570;28;20187;-72
2023/04/28 02:31:14;;;;;;;10.77;10.27;;;;;;;4.89;61.86;93037.44;5124547;28;20235;-72
2023/04/28 02:33:41;;;;;;;9.53;9.03;;;;;;;4.67;61.01;93008.09;5121438;28;20182;-72
2023/04/28 02:36:07;;;;;;;10.97;10.37;;;;;;;4.30;61.42;92942.31;5105806;28;20242;-71
2023/04/28 02:38:33;;;;;;;10.93;10.37;;;;;;;4.66;62.80;93009.13;5115618;28;20179;-71
2023/04/28 02:40:58;;;;;;;11.00;10.20;;;;;;;4.74;62.20;93042.38;5111685;28;20184;-72
2023/04/28 02:43:25;;;;;;;11.23;10.63;;;;;;;4.69;61.84;93021.59;5111085;28;20203;-71
2023/04/28 02:45:50;;;;;;;11.70;10.70;;;;;;;4.80;61.82;93045.81;5112243;28;20175;-72
2023/04/28 02:48:15;;;;;;;11.60;10.87;;;;;;;4.79;61.52;93039.84;5122395;28;20183;-72
2023/04/28 02:50:41;;;;;;;10.07;9.57;;;;;;;4.79;61.35;93041.69;5117052;28;20211;-72
2023/04/28 02:53:06;;;;;;;10.13;9.53;;;;;;;4.66;62.16;93031.59;5112108;28;20735;-72
2023/04/28 02:55:32;;;;;;;11.87;11.07;;;;;;;4.73;61.53;93043.38;5116355;28;20179;-71
2023/04/28 02:57:57;;;;;;;11.20;10.47;;;;;;;4.71;61.09;93042.84;5130282;28;20226;-72
2023/04/28 03:00:22;;;;;;;12.57;11.30;;;;;;;4.59;61.67;93029.16;5117266;28;20191;-71
2023/04/28 03:02:48;;;;;;;11.40;10.83;;;;;;;4.59;61.08;93024.00;5109980;28;20236;-72
2023/04/28 03:05:13;;;;;;;10.50;9.73;;;;;;;4.69;63.70;93029.34;5098025;28;20204;-72
2023/04/28 03:07:40;;;;;;;9.77;9.33;;;;;;;4.76;61.27;93053.25;5101593;28;20231;-73
2023/04/28 03:10:06;;;;;;;10.77;9.97;;;;;;;4.68;60.55;93043.31;5090015;28;20216;-72
2023/04/28 03:12:31;;;;;;;10.90;10.10;;;;;;;4.67;60.01;93056.44;5114687;28;20226;-72
2023/04/28 03:14:57;;;;;;;12.00;10.53;;;;;;;4.70;59.42;93027.56;5126710;28;20240;-70
2023/04/28 03:17:22;;;;;;;11.10;10.43;;;;;;;4.69;60.89;93024.19;5119132;28;20234;-71
2023/04/28 03:19:47;;;;;;;10.57;9.73;;;;;;;4.77;63.34;93046.28;5112610;28;20200;-72
2023/04/28 03:22:13;;;;;;;11.13;10.43;;;;;;;4.76;60.23;93055.84;5123046;28;21848;-72
2023/04/28 03:24:38;;;;;;;11.10;10.37;;;;;;;4.63;59.64;93048.38;5119796;28;20201;-72
2023/04/28 03:27:04;;;;;;;10.60;9.93;;;;;;;4.69;60.27;93064.75;5107743;28;20236;-72
2023/04/28 03:29:30;;;;;;;10.77;10.23;;;;;;;4.55;60.67;93051.34;5101552;28;20240;-72
2023/04/28 03:31:55;;;;;;;9.50;8.90;;;;;;;4.74;60.31;93068.25;5098422;28;20242;-72
2023/04/28 03:34:21;;;;;;;11.13;10.27;;;;;;;4.65;59.37;93063.66;5099598;28;20191;-72
2023/04/28 03:36:46;;;;;;;11.73;10.83;;;;;;;4.74;64.77;93021.69;5103267;28;20227;-72
2023/04/28 03:39:12;;;;;;;10.33;9.43;;;;;;;5.02;60.16;93058.84;5106508;28;20212;-71
2023/04/28 03:41:37;;;;;;;9.90;9.27;;;;;;;5.15;58.29;93087.03;5098704;28;20224;-71
2023/04/28 03:44:03;;;;;;;10.30;9.70;;;;;;;5.00;58.66;93079.78;5091280;28;20207;-71
2023/04/28 03:46:28;;;;;;;10.60;10.10;;;;;;;4.76;61.03;93042.13;5100351;28;20219;-70
2023/04/28 03:48:53;;;;;;;10.80;10.10;;;;;;;5.08;58.10;93083.78;5091729;28;20177;-70
2023/04/28 03:51:19;;;;;;;11.57;10.87;;;;;;;5.06;58.09;93088.44;5095890;28;20224;-70
2023/04/28 03:53:44;;;;;;;11.03;10.17;;;;;;;4.90;57.59;93057.13;5090321;28;20188;-71
2023/04/28 03:56:09;;;;;;;10.10;9.57;;;;;;;5.12;57.79;93087.50;5099145;28;20227;-71
2023/04/28 03:58:35;;;;;;;10.83;10.13;;;;;;;5.24;57.11;93108.91;5093117;28;20185;-72
2023/04/28 04:01:01;;;;;;;11.00;10.30;;;;;;;5.27;57.51;93103.28;5096949;28;20232;-71
2023/04/28 04:03:26;;;;;;;12.37;11.57;;;;;;;5.13;57.08;93091.66;5093132;28;20220;-71
2023/04/28 04:05:52;;;;;;;11.83;11.03;;;;;;;5.25;56.09;93115.66;5083122;28;20204;-74
2023/04/28 04:08:18;;;;;;;11.73;10.77;;;;;;;5.11;56.12;93067.81;5089842;28;20189;-75
2023/04/28 04:10:44;;;;;;;11.13;10.13;;;;;;;5.37;56.21;93108.63;5088352;28;20209;-75
2023/04/28 04:13:09;;;;;;;12.30;11.20;;;;;;;5.36;54.98;93099.28;5105558;28;20187;-74
2023/04/28 04:15:35;;;;;;;12.00;11.20;;;;;;;5.47;55.35;93125.09;5112027;28;20187;-73
2023/04/28 04:18:00;;;;;;;11.43;10.73;;;;;;;5.55;56.24;93111.78;5111796;28;20795;-74
2023/04/28 04:20:26;;;;;;;11.83;10.87;;;;;;;5.62;54.99;93122.75;5109368;28;20211;-73
2023/04/28 04:22:51;;;;;;;9.93;9.43;;;;;;;5.47;55.03;93093.25;5101996;28;20233;-74
2023/04/28 04:25:16;;;;;;;11.53;10.73;;;;;;;5.47;54.39;93095.84;5107936;28;20202;-73
2023/04/28 04:27:42;;;;;;;9.97;9.50;;;;;;;5.29;54.07;93070.19;5110065;28;20227;-74
2023/04/28 04:30:08;;;;;;;10.77;9.83;;;;;;;5.60;54.51;93111.06;5106499;28;20188;-74
2023/04/28 04:32:33;;;;;;;10.83;10.23;;;;;;;5.79;54.41;93130.53;5107478;28;20231;-70
2023/04/28 04:34:58;;;;;;;11.33;10.37;;;;;;;5.72;55.27;93097.00;5117040;28;20279;-71
2023/04/28 04:37:24;;;;;;;10.27;9.33;;;;;;;5.85;54.71;93147.75;5119512;28;20853;-70
2023/04/28 04:39:49;;;;;;;11.30;10.40;;;;;;;5.70;54.89;93118.97;5119649;28;20192;-67
2023/04/28 04:42:14;;;;;;;10.60;10.00;;;;;;;5.95;55.92;93142.72;5116264;28;20230;-69
2023/04/28 04:44:40;;;;;;;10.77;10.13;;;;;;;5.98;55.21;93132.66;5121302;28;20190;-70
2023/04/28 04:47:06;;;;;;;11.43;10.53;;;;;;;6.12;56.01;93136.50;5100211;28;20245;-69
2023/04/28 04:49:31;;;;;;;11.47;10.47;;;;;;;6.06;55.06;93123.69;5131893;28;20214;-69
2023/04/28 04:51:58;;;;;;;10.87;10.03;;;;;;;6.05;54.90;93140.28;5113655;28;20291;-70
2023/04/28 04:54:23;;;;;;;10.90;10.00;;;;;;;6.15;55.20;93148.19;5095811;28;20185;-71
2023/04/28 04:56:48;;;;;;;12.07;11.10;;;;;;;6.25;54.85;93156.09;5099842;28;20223;-73
2023/04/28 04:59:14;;;;;;;10.97;10.37;;;;;;;6.28;55.96;93155.63;5113745;28;20192;-70
2023/04/28 05:01:39;;;;;;;10.53;10.00;;;;;;;6.22;55.05;93122.88;5112503;28;20220;-68
2023/04/28 05:04:05;;;;;;;12.67;11.07;;;;;;;6.40;57.89;93156.31;5118302;28;20220;-67
2023/04/28 05:06:30;;;;;;;11.33;10.63;;;;;;;6.21;55.72;93155.03;5124161;28;20260;-68
2023/04/28 05:08:57;;;;;;;9.70;9.30;;;;;;;6.57;56.51;93167.41;5119149;28;20195;-69
2023/04/28 05:11:22;;;;;;;10.47;9.83;;;;;;;6.71;55.29;93163.44;5117013;28;20234;-68
2023/04/28 05:13:48;;;;;;;10.70;10.17;;;;;;;6.22;55.93;93143.63;5116143;28;20196;-68
2023/04/28 05:16:13;;;;;;;11.20;10.30;;;;;;;6.43;55.22;93168.78;5113025;28;20223;-68
2023/04/28 05:18:39;;;;;;;10.43;9.50;;;;;;;6.71;55.53;93167.88;5111563;28;20205;-67
2023/04/28 05:21:05;;;;;;;10.50;9.77;;;;;;;6.81;55.50;93150.59;5107424;28;20233;-69
2023/04/28 05:23:30;;;;;;;11.50;10.80;;;;;;;6.78;55.97;93151.09;5107154;28;20182;-68
2023/04/28 05:25:56;;;;;;;11.43;10.47;;;;;;;7.06;54.88;93166.47;5105532;28;20192;-69
2023/04/28 05:28:21;;;;;;;10.67;10.10;;;;;;;8.35;52.33;93169.69;5110420;28;20194;-68
2023/04/28 05:30:47;;;;;;;10.97;10.37;;;;;;;8.13;50.93;93162.75;5119141;28;20237;-69
2023/04/28 05:33:12;;;;;;;9.80;9.10;;;;;;;8.43;50.22;93177.03;5122216;28;20184;-71
2023/04/28 05:35:38;;;;;;;9.80;9.30;;;;;;;9.17;47.56;93157.56;5108878;28;20176;-67
2023/04/28 05:38:05;;;;;;;9.03;8.63;;;;;;;11.18;43.48;93164.28;5090665;28;20694;-69
2023/04/28 05:40:31;;;;;;;9.73;9.13;;;;;;;12.33;39.67;93164.59;5080104;28;20193;-69
2023/04/28 05:42:56;;;;;;;10.80;10.00;;;;;;;15.29;33.99;93157.81;5087694;28;20331;-68
2023/04/28 05:45:21;;;;;;;9.67;9.07;;;;;;;14.91;34.59;93169.59;5088150;28;20191;-68
2023/04/28 05:47:47;;;;;;;9.90;9.40;;;;;;;15.06;33.83;93170.09;5079040;28;20281;-68
2023/04/28 05:50:12;;;;;;;10.63;9.87;;;;;;;15.14;33.55;93176.53;5092024;28;20217;-69
2023/04/28 05:52:38;;;;;;;9.70;8.90;;;;;;;16.06;31.55;93173.28;5081261;28;20291;-69
2023/04/28 05:55:03;;;;;;;10.00;9.40;;;;;;;17.39;30.12;93163.38;5090287;28;20204;-70
2023/04/28 05:57:30;;;;;;;10.13;9.33;;;;;;;16.92;30.55;93179.94;5087842;28;20219;-69
2023/04/28 05:59:55;;;;;;;9.90;9.03;;;;;;;15.77;30.94;93187.91;5100147;28;20187;-70
2023/04/28 06:02:21;;;;;;;10.33;9.63;;;;;;;16.71;29.47;93173.63;5087632;28;20279;-69
2023/04/28 06:04:46;;;;;;;10.10;9.50;;;;;;;16.46;30.02;93190.06;5094076;28;20292;-69
2023/04/28 06:07:11;;;;;;;10.27;9.47;;;;;;;16.53;30.54;93182.50;5084064;28;20213;-71
2023/04/28 06:09:37;;;;;;;9.03;8.60;;;;;;;16.61;29.45;93189.69;5087752;28;20177;-71
2023/04/28 06:12:02;;;;;;;9.73;9.10;;;;;;;17.54;29.04;93175.41;5087979;28;20237;-71
2023/04/28 06:14:28;;;;;;;9.50;9.00;;;;;;;16.40;29.38;93185.16;5090821;28;20197;-71
2023/04/28 06:16:54;;;;;;;10.20;9.50;;;;;;;14.59;33.17;93174.88;5088162;28;20225;-72
2023/04/28 06:19:19;;;;;;;9.83;9.33;;;;;;;10.40;38.85;93101.59;5085203;28;20192;-74
2023/04/28 06:21:45;;;;;;;10.43;9.60;;;;;;;9.22;43.21;93141.97;5088078;28;20228;-74
2023/04/28 06:24:10;;;;;;;10.57;9.90;;;;;;;8.81;45.35;93166.31;5089193;28;20196;-72
2023/04/28 06:26:36;;;;;;;10.13;9.63;;;;;;;8.94;46.52;93163.22;5079169;28;20232;-73
2023/04/28 06:29:02;;;;;;;11.47;10.50;;;;;;;8.97;45.93;93170.53;5092779;28;20193;-72
2023/04/28 06:31:27;;;;;;;10.77;10.27;;;;;;;8.89;46.07;93171.81;5088912;28;20248;-72
2023/04/28 06:33:53;;;;;;;10.60;10.00;;;;;;;8.56;46.45;93184.41;5088793;28;20183;-73
2023/04/28 06:36:18;;;;;;;10.07;9.37;;;;;;;8.19;47.75;93148.75;5088691;28;20276;-72
2023/04/28 06:38:44;;;;;;;11.57;10.97;;;;;;;8.38;47.90;93169.97;5086778;28;20195;-72
2023/04/28 06:41:10;;;;;;;10.00;9.30;;;;;;;8.19;47.60;93148.75;5089647;28;21091;-73
2023/04/28 06:43:36;;;;;;;10.63;10.03;;;;;;;8.24;46.25;93155.03;5091540;28;20372;-72
2023/04/28 06:46:02;;;;;;;11.03;10.27;;;;;;;8.26;47.53;93148.56;5093511;28;20225;-73
2023/04/28 06:48:27;;;;;;;10.27;9.67;;;;;;;8.95;46.66;93164.81;5088335;28;20185;-70
2023/04/28 06:50:53;;;;;;;10.77;10.27;;;;;;;8.45;46.32;93117.72;5096777;28;20283;-71
2023/04/28 06:53:18;;;;;;;10.33;9.40;;;;;;;8.76;47.36;93156.66;5089050;28;20180;-70
2023/04/28 06:55:44;;;;;;;11.07;10.47;;;;;;;9.08;45.26;93156.50;5090319;28;20199;-70
2023/04/28 06:58:10;;;;;;;10.30;9.70;;;;;;;8.87;46.63;93165.28;5089172;28;20193;-71
2023/04/28 07:00:35;;;;;;;10.70;10.07;;;;;;;8.76;45.70;93155.88;5089766;28;20184;-70
2023/04/28 07:03:01;;;;;;;11.23;10.43;;;;;;;9.08;46.01;93166.94;5089135;28;20220;-70
2023/04/28 07:05:27;;;;;;;10.67;9.97;;;;;;;8.60;46.40;93172.44;5089560;28;20222;-71
2023/04/28 07:07:53;;;;;;;10.10;9.30;;;;;;;8.93;47.61;93164.28;5087848;28;20224;-71
2023/04/28 07:10:18;;;;;;;14.30;10.30;;;;;;;8.99;46.55;93147.63;5090335;28;20187;-72
2023/04/28 07:12:44;;;;;;;10.27;9.57;;;;;;;8.97;46.86;93168.72;5093785;28;20311;-72
2023/04/28 07:15:10;;;;;;;11.17;10.40;;;;;;;8.88;47.88;93154.63;5088631;28;20246;-73
2023/04/28 07:17:35;;;;;;;9.83;9.13;;;;;;;8.89;47.29;93150.97;5095303;28;20227;-72
2023/04/28 07:20:00;;;;;;;10.10;9.50;;;;;;;9.00;47.89;93138.75;5083988;28;20194;-71
2023/04/28 07:22:26;;;;;;;10.30;9.60;;;;;;;9.15;47.70;93149.25;5080727;28;20248;-74
2023/04/28 07:24:51;;;;;;;9.97;9.27;;;;;;;9.19;48.01;93134.66;5087894;28;20197;-73
2023/04/28 07:27:17;;;;;;;10.77;10.17;;;;;;;8.95;47.30;93143.97;5087746;28;20220;-72
2023/04/28 07:29:42;;;;;;;10.30;9.80;;;;;;;9.20;47.71;93146.63;5089244;28;20259;-72
2023/04/28 07:32:09;;;;;;;11.70;10.80;;;;;;;9.34;46.43;93163.34;5087182;28;20240;-72
2023/04/28 07:34:35;;;;;;;10.30;9.70;;;;;;;9.31;45.73;93101.34;5077697;28;21017;-73
2023/04/28 07:37:01;;;;;;;10.07;9.53;;;;;;;9.73;46.34;93152.22;5086672;28;20231;-72
2023/04/28 07:39:27;;;;;;;10.00;9.30;;;;;;;10.14;44.80;93167.91;5086859;28;20177;-73
2023/04/28 07:41:53;;;;;;;11.47;10.60;;;;;;;10.10;44.65;93157.22;5089912;28;20239;-73
2023/04/28 07:44:18;;;;;;;10.37;9.57;;;;;;;10.20;44.16;93166.84;5088897;28;20284;-73
2023/04/28 07:46:43;;;;;;;10.33;9.73;;;;;;;9.92;43.26;93160.31;5088041;28;20217;-74
2023/04/28 07:49:09;;;;;;;10.37;9.67;;;;;;;10.09;44.76;93181.75;5083449;28;20197;-74
2023/04/28 07:51:34;;;;;;;10.20;9.70;;;;;;;10.05;44.92;93175.47;5083955;28;20236;-73
2023/04/28 07:54:00;;;;;;;10.33;9.43;;;;;;;9.85;44.56;93153.81;5083866;28;20220;-74
2023/04/28 07:56:25;;;;;;;10.83;10.13;;;;;;;10.07;45.42;93170.78;5087418;28;20276;-74
2023/04/28 07:58:51;;;;;;;10.90;9.80;;;;;;;10.18;45.10;93174.19;5087818;28;20203;-74
2023/04/28 08:01:17;;;;;;;11.67;10.87;;;;;;;10.12;42.28;93155.13;5085141;28;20224;-74
2023/04/28 08:03:42;;;;;;;9.97;9.23;;;;;;;10.03;42.91;93164.50;5087301;28;20225;-74
2023/04/28 08:06:08;;;;;;;10.37;9.80;;;;;;;10.35;44.39;93162.41;5089282;28;20227;-74
2023/04/28 08:08:33;;;;;;;10.70;10.03;;;;;;;10.01;44.36;93145.72;5086325;28;20853;-74
2023/04/28 08:10:59;;;;;;;9.80;9.20;;;;;;;10.08;45.84;93148.88;5091682;28;20315;-73
2023/04/28 08:13:25;;;;;;;10.67;10.07;;;;;;;10.51;42.62;93157.94;5085392;28;20189;-74
2023/04/28 08:15:51;;;;;;;10.90;10.20;;;;;;;10.06;42.79;93144.91;5088266;28;20199;-74
2023/04/28 08:18:16;;;;;;;10.13;9.43;;;;;;;10.23;43.83;93161.91;5084741;28;20722;-74
2023/04/28 08:20:42;;;;;;;10.40;9.83;;;;;;;10.14;44.69;93173.91;5080749;28;20219;-72
2023/04/28 08:23:08;;;;;;;9.70;9.23;;;;;;;10.48;42.22;93174.94;5106673;28;20192;-77
2023/04/28 08:25:34;;;;;;;10.63;10.07;;;;;;;10.58;45.62;93169.69;5097139;28;20199;-78
2023/04/28 08:27:59;;;;;;;10.43;9.77;;;;;;;10.69;42.41;93162.63;5111794;28;20236;-76
2023/04/28 08:30:25;;;;;;;8.87;8.40;;;;;;;10.62;42.57;93146.44;5115131;28;20184;-76
2023/04/28 08:32:50;;;;;;;10.27;9.63;;;;;;;10.89;42.56;93150.28;5112673;28;20220;-77
2023/04/28 08:35:16;;;;;;;9.97;9.20;;;;;;;10.76;42.93;93129.97;5116078;28;20196;-76
2023/04/28 08:37:42;;;;;;;9.83;9.33;;;;;;;10.66;43.28;93160.53;5107866;28;20217;-76
2023/04/28 08:40:10;;;;;;;9.67;8.97;;;;;;;11.01;42.24;93170.88;5114962;28;20218;-68
2023/04/28 08:42:37;;;;;;;10.80;10.13;;;;;;;10.80;43.18;93170.16;5107284;28;20230;-71
2023/04/28 08:45:04;;;;;;;10.10;9.40;;;;;;;10.90;41.49;93162.28;5112909;28;20192;-71
2023/04/28 08:47:38;;;;;;;10.33;9.60;;;;;;;10.69;42.37;93158.16;5108066;28;20217;-71
2023/04/28 08:50:05;;;;;;;10.00;9.07;;;;;;;11.00;41.50;93151.03;5114700;28;20198;-72
2023/04/28 08:52:31;;;;;;;9.87;9.13;;;;;;;10.95;42.60;93130.94;5116078;28;20268;-72
2023/04/28 08:55:02;;;;;;;10.67;9.97;;;;;;;11.31;42.42;93158.44;5115045;28;20589;-71
2023/04/28 08:57:37;;;;;;;10.77;9.37;;;;;;;11.48;40.15;93145.03;5110640;28;20211;-70
2023/04/28 09:00:02;;;;;;;10.40;9.60;;;;;;;11.25;43.31;93143.84;5116088;28;20262;-73
2023/04/28 09:02:28;;;;;;;11.47;10.50;;;;;;;11.46;40.41;93138.50;5119517;28;20257;-72
2023/04/28 09:04:53;;;;;;;9.70;8.90;;;;;;;11.08;41.97;93148.63;5112672;28;20271;-70
2023/04/28 09:07:19;;;;;;;9.63;8.83;;;;;;;11.08;42.19;93106.81;5110444;28;20216;-71
2023/04/28 09:09:44;;;;;;;9.80;9.07;;;;;;;11.14;43.89;93131.13;5108867;28;20188;-72
2023/04/28 09:12:10;;;;;;;10.07;9.37;;;;;;;11.22;40.54;93148.84;5111224;28;20227;-70
2023/04/28 09:14:37;;;;;;;10.10;9.20;;;;;;;11.31;41.00;93153.22;5112478;28;20210;-70
2023/04/28 09:17:10;;;;;;;10.20;9.33;;;;;;;11.29;39.92;93144.09;5101689;28;20256;-69
2023/04/28 09:19:36;;;;;;;10.17;9.50;;;;;;;11.52;40.09;93127.00;5108654;28;20208;-70
2023/04/28 09:22:04;;;;;;;10.90;10.17;;;;;;;11.58;40.02;93131.13;5100325;28;20229;-69
2023/04/28 09:24:30;;;;;;;10.50;9.90;;;;;;;11.19;42.18;93133.72;5105805;28;20245;-70
2023/04/28 09:27:01;;;;;;;9.50;8.70;;;;;;;11.45;41.40;93129.91;5105332;28;20236;-69
2023/04/28 09:29:27;;;;;;;9.90;9.30;;;;;;;11.58;40.29;93123.28;5112915;28;20259;-69
2023/04/28 09:31:53;;;;;;;10.47;9.47;;;;;;;11.69;42.51;93127.44;5090776;28;20325;-70
2023/04/28 09:34:19;;;;;;;10.73;9.87;;;;;;;11.68;41.25;93131.09;5104364;28;20246;-67
2023/04/28 09:36:45;;;;;;;9.10;8.70;;;;;;;11.96;39.52;93127.75;5093231;28;20287;-67
2023/04/28 09:39:11;;;;;;;9.53;9.03;;;;;;;11.60;40.63;93108.09;5107553;28;20198;-70
2023/04/28 09:41:40;;;;;;;10.57;9.80;;;;;;;12.07;40.99;93119.53;5093732;28;20236;-71
2023/04/28 09:44:32;;;;;;;9.70;9.20;;;;;;;11.96;41.29;93127.75;5109492;28;20188;-68
2023/04/28 09:46:57;;;;;;;9.53;8.67;;;;;;;11.80;41.03;93108.75;5115264;28;20231;-69
2023/04/28 09:49:23;;;;;;;9.93;9.10;;;;;;;11.80;40.96;93097.53;5126994;28;20437;-71
2023/04/28 09:51:49;;;;;;;9.27;8.60;;;;;;;11.86;41.46;93107.66;5109986;28;20237;-71
2023/04/28 09:54:15;;;;;;;9.70;9.03;;;;;;;12.00;40.08;93105.97;5110371;28;20199;-70
2023/04/28 09:56:45;;;;;;;9.53;9.03;;;;;;;12.18;39.72;93100.09;5107717;28;21081;-74
2023/04/28 09:59:12;;;;;;;9.20;8.70;;;;;;;12.26;39.39;93111.78;5115049;28;20193;-72
2023/04/28 10:01:39;;;;;;;9.60;9.10;;;;;;;12.11;39.16;93099.59;5111422;28;20243;-73
2023/04/28 10:04:06;;;;;;;9.30;8.77;;;;;;;11.98;39.88;93094.25;5124446;28;20231;-72
2023/04/28 10:06:35;;;;;;;9.60;9.00;;;;;;;12.15;40.00;93092.00;5112990;28;20208;-74
2023/04/28 10:09:02;;;;;;;10.10;9.50;;;;;;;12.11;38.79;93057.72;5114657;28;20214;-72
2023/04/28 10:11:29;;;;;;;9.97;9.53;;;;;;;11.99;40.03;93095.78;5103538;28;20783;-73
2023/04/28 10:13:55;;;;;;;10.00;9.40;;;;;;;11.96;40.54;93070.97;5116625;28;20208;-73
2023/04/28 10:16:22;;;;;;;9.93;9.23;;;;;;;12.31;39.11;93088.94;5105598;28;20217;-73
2023/04/28 10:18:49;;;;;;;9.43;8.97;;;;;;;12.23;39.45;93060.75;5106394;28;20180;-74
2023/04/28 10:21:17;;;;;;;9.27;8.73;;;;;;;12.23;40.58;93073.84;5118463;28;20241;-72
2023/04/28 10:23:58;;;;;;;9.57;8.80;;;;;;;12.60;39.68;93088.94;5109950;28;20247;-73
2023/04/28 10:26:46;;;;;;;10.60;9.90;;;;;;;12.20;39.11;93086.72;5104448;28;20224;-72
2023/04/28 10:29:12;;;;;;;9.90;9.03;;;;;;;12.27;37.76;93087.94;5109114;28;20255;-72
2023/04/28 10:31:37;;;;;;;9.47;8.83;;;;;;;12.21;39.16;93051.63;5109220;28;20239;-78
2023/04/28 10:34:22;;;;;;;8.90;8.40;;;;;;;12.61;38.96;93069.53;5110268;28;20203;-72
2023/04/28 10:36:53;;;;;;;9.77;9.17;;;;;;;12.66;38.56;93075.50;5113482;28;20279;-71
2023/04/28 10:39:19;;;;;;;9.13;8.63;;;;;;;12.78;37.97;93067.22;5099263;28;20195;-72
2023/04/28 10:41:46;;;;;;;9.73;9.23;;;;;;;12.70;37.44;93070.50;5115262;28;20223;-71
2023/04/28 10:44:27;;;;;;;8.57;8.07;;;;;;;12.55;37.86;93073.25;5111556;28;20200;-72
2023/04/28 10:47:02;;;;;;;9.67;9.27;;;;;;;12.41;36.52;93046.97;5109515;28;20228;-72
2023/04/28 10:50:06;;;;;;;9.20;8.60;;;;;;;12.64;38.87;93055.84;5122063;28;20216;-71
2023/04/28 10:52:41;;;;;;;8.83;8.43;;;;;;;12.70;37.97;93054.78;5098210;28;20219;-73
2023/04/28 10:55:25;;;;;;;9.47;9.07;;;;;;;12.51;37.00;93051.31;5111871;28;20233;-71
2023/04/28 10:58:19;;;;;;;11.27;10.67;;;;;;;12.59;35.75;93048.84;5095534;28;20225;-71
2023/04/28 11:00:50;;;;;;;11.10;8.33;;;;;;;12.61;37.94;93056.41;5109809;28;20258;-72
2023/04/28 11:03:37;;;;;;;10.17;9.47;;;;;;;12.45;35.76;93053.19;5111058;28;20241;-71
2023/04/28 11:06:25;;;;;;;9.20;8.60;;;;;;;12.34;37.91;93048.34;5098849;28;20231;-71
2023/04/28 11:08:52;;;;;;;9.23;8.63;;;;;;;12.80;37.90;93037.09;5108383;28;20220;-73
2023/04/28 11:11:19;;;;;;;9.33;8.63;;;;;;;13.15;37.28;93040.34;5110305;28;20238;-73
2023/04/28 11:13:46;;;;;;;9.17;8.57;;;;;;;13.13;38.23;93011.78;5107901;28;20191;-74
2023/04/28 11:16:30;;;;;;;9.90;9.10;;;;;;;13.11;36.46;93016.50;5108259;28;20297;-74
2023/04/28 11:19:03;;;;;;;9.90;9.30;;;;;;;13.15;34.65;93041.13;5105939;28;20788;-73
2023/04/28 11:21:29;;;;;;;9.60;8.97;;;;;;;12.85;35.26;93033.63;5116705;28;20212;-70
2023/04/28 11:23:57;;;;;;;9.80;9.00;;;;;;;13.02;35.33;93028.69;5114438;27;20203;-70
2023/04/28 11:26:23;;;;;;;10.20;9.50;;;;;;;12.98;34.79;93030.28;5110280;28;20858;-71